Terminal Aerodrome Forecast
Issued by NWS

Home | Current Version | Previous Version | Graphics & Text | Print | Product List | Glossary On
Versions: 1 2 3 4 5 6 7 8 9 10 11 12 13 14 15 16
000
FTUS43 KICT 232300
TAFSLN
TAF
KSLN 232320Z 2400/2424 09007KT P6SM SKC
     FM241000 13008KT 6SM BR SKC
     FM241600 16014G22KT P6SM SKC=

USA.gov is the U.S. government's official web portal to all federal, state and local government web resources and services.